Time;durP1;ratioP1;P1;durP2;ratioP2;P2;SDS_P1;SDS_P2;PMS_P1;PMS_P2;Temp;Humidity;BMP_temperature;BMP_pressure;BME280_temperature;BME280_humidity;BME280_pressure;Samples;Min_cycle;Max_cycle;Signal;HPM_P1;HPM_P2
2021/03/11 00:00:59;;;;;;;32.47;26.85;;;;;;;;;;5080066;28;20396;-81
2021/03/11 00:03:26;;;;;;;32.85;27.40;;;;;;;;;;5082238;28;20410;-83
2021/03/11 00:05:52;;;;;;;32.55;27.40;;;;;;;;;;5087039;28;20432;-81
2021/03/11 00:08:18;;;;;;;29.90;26.10;;;;;;;;;;5081379;28;20735;-83
2021/03/11 00:10:44;;;;;;;30.80;27.02;;;;;;;;;;5097448;28;20368;-82
2021/03/11 00:13:10;;;;;;;30.52;27.23;;;;;;;;;;5099775;28;20418;-82
2021/03/11 00:15:38;;;;;;;32.17;27.35;;;;;;;;;;5081870;28;20448;-81
2021/03/11 00:18:04;;;;;;;32.63;27.57;;;;;;;;;;5098767;28;20380;-83
2021/03/11 00:20:31;;;;;;;34.73;28.73;;;;;;;;;;5075857;28;20368;-88
2021/03/11 00:22:57;;;;;;;33.72;27.80;;;;;;;;;;5098472;28;20430;-81
2021/03/11 00:25:23;;;;;;;31.75;27.25;;;;;;;;;;5099752;28;20368;-81
2021/03/11 00:27:49;;;;;;;33.05;27.58;;;;;;;;;;5086085;28;20384;-81
2021/03/11 00:30:17;;;;;;;34.28;27.83;;;;;;;;;;5086332;28;20376;-81
2021/03/11 00:32:43;;;;;;;32.45;28.25;;;;;;;;;;5102361;28;20843;-82
2021/03/11 00:35:10;;;;;;;34.92;29.00;;;;;;;;;;5104280;28;20874;-81
2021/03/11 00:37:36;;;;;;;32.22;27.52;;;;;;;;;;5086632;28;20432;-81
2021/03/11 00:40:07;;;;;;;34.08;28.63;;;;;;;;;;5104775;28;20410;-81
2021/03/11 00:42:33;;;;;;;32.73;28.70;;;;;;;;;;5104336;28;20408;-82
2021/03/11 00:44:59;;;;;;;34.03;28.13;;;;;;;;;;5085107;28;20388;-82
2021/03/11 00:47:25;;;;;;;35.17;29.35;;;;;;;;;;5084826;28;20445;-81
2021/03/11 00:49:51;;;;;;;33.70;28.38;;;;;;;;;;5102805;28;20392;-81
2021/03/11 00:52:17;;;;;;;36.80;28.95;;;;;;;;;;5084763;28;20383;-81
2021/03/11 00:54:43;;;;;;;34.67;28.40;;;;;;;;;;5085168;28;20376;-81
2021/03/11 00:57:09;;;;;;;33.38;29.50;;;;;;;;;;5104566;28;20987;-81
2021/03/11 00:59:35;;;;;;;34.80;30.13;;;;;;;;;;5101993;28;20425;-81
2021/03/11 01:02:01;;;;;;;36.15;30.23;;;;;;;;;;5085519;28;20460;-82
2021/03/11 01:04:27;;;;;;;34.95;29.02;;;;;;;;;;5102526;28;21595;-82
2021/03/11 01:06:53;;;;;;;35.25;28.88;;;;;;;;;;5100721;28;20931;-82
2021/03/11 01:09:19;;;;;;;36.63;29.42;;;;;;;;;;5085402;28;20372;-82
2021/03/11 01:11:45;;;;;;;35.03;29.10;;;;;;;;;;5084363;28;20387;-82
2021/03/11 01:14:12;;;;;;;37.88;30.92;;;;;;;;;;5085541;28;20369;-82
2021/03/11 01:16:38;;;;;;;35.35;29.77;;;;;;;;;;5103096;28;20374;-82
2021/03/11 01:19:04;;;;;;;36.80;30.53;;;;;;;;;;5103260;28;20404;-81
2021/03/11 01:21:30;;;;;;;40.33;32.22;;;;;;;;;;5085112;28;20369;-81
2021/03/11 01:23:57;;;;;;;37.25;30.40;;;;;;;;;;5102404;28;20430;-81
2021/03/11 01:26:24;;;;;;;37.83;30.58;;;;;;;;;;5084317;28;20373;-82
2021/03/11 01:28:51;;;;;;;37.83;31.02;;;;;;;;;;5102788;28;20364;-81
2021/03/11 01:31:17;;;;;;;39.38;31.42;;;;;;;;;;5084523;28;20391;-81
2021/03/11 01:33:43;;;;;;;37.00;30.77;;;;;;;;;;5104584;28;20455;-81
2021/03/11 01:36:09;;;;;;;34.05;28.90;;;;;;;;;;5101924;28;20398;-81
2021/03/11 01:38:35;;;;;;;38.97;32.58;;;;;;;;;;5103889;28;20368;-82
2021/03/11 01:41:01;;;;;;;35.27;29.60;;;;;;;;;;5102510;28;20448;-81
2021/03/11 01:43:27;;;;;;;36.30;30.67;;;;;;;;;;5100626;28;20460;-81
2021/03/11 01:45:53;;;;;;;37.85;31.80;;;;;;;;;;5101653;28;20410;-82
2021/03/11 01:48:19;;;;;;;37.80;31.80;;;;;;;;;;5084834;28;20877;-81
2021/03/11 01:50:45;;;;;;;40.63;31.50;;;;;;;;;;5103372;28;20375;-81
2021/03/11 01:53:11;;;;;;;38.40;31.07;;;;;;;;;;5083703;28;20408;-82
2021/03/11 01:55:37;;;;;;;40.28;32.30;;;;;;;;;;5084408;28;20372;-82
2021/03/11 01:58:03;;;;;;;39.00;31.70;;;;;;;;;;5084513;28;20447;-82
2021/03/11 02:00:29;;;;;;;39.85;32.25;;;;;;;;;;5100970;28;20380;-82
2021/03/11 02:02:56;;;;;;;39.70;32.38;;;;;;;;;;5101934;28;20388;-82
2021/03/11 02:05:23;;;;;;;36.85;30.85;;;;;;;;;;5101973;28;20468;-82
2021/03/11 02:07:49;;;;;;;42.60;33.22;;;;;;;;;;5101411;28;20368;-81
2021/03/11 02:10:19;;;;;;;41.15;31.88;;;;;;;;;;5102558;28;20367;-81
2021/03/11 02:12:45;;;;;;;37.80;30.73;;;;;;;;;;5100490;28;20387;-81
2021/03/11 02:15:21;;;;;;;42.03;33.00;;;;;;;;;;5084767;28;20376;-82
2021/03/11 02:17:52;;;;;;;43.17;33.45;;;;;;;;;;5083907;28;20388;-81
2021/03/11 02:20:24;;;;;;;40.83;32.65;;;;;;;;;;5081114;28;20893;-84
2021/03/11 02:23:09;;;;;;;39.55;31.55;;;;;;;;;;5100272;28;20396;-82
2021/03/11 02:25:52;;;;;;;42.40;33.72;;;;;;;;;;5100867;28;20414;-85
2021/03/11 02:28:28;;;;;;;41.50;33.22;;;;;;;;;;5082689;28;20889;-81
2021/03/11 02:30:55;;;;;;;41.90;33.55;;;;;;;;;;5101154;28;20457;-82
2021/03/11 02:33:23;;;;;;;41.25;33.75;;;;;;;;;;5100799;28;20369;-83
2021/03/11 02:35:52;;;;;;;43.53;34.77;;;;;;;;;;5102873;28;20440;-84
2021/03/11 02:38:18;;;;;;;42.70;33.30;;;;;;;;;;5083134;28;20803;-87
2021/03/11 02:40:45;;;;;;;44.67;34.53;;;;;;;;;;5083943;28;20477;-82
2021/03/11 02:43:13;;;;;;;42.42;34.60;;;;;;;;;;5102237;28;20399;-81
2021/03/11 02:45:39;;;;;;;41.70;33.35;;;;;;;;;;5100435;28;20373;-82
2021/03/11 02:48:06;;;;;;;42.92;33.80;;;;;;;;;;5083036;28;20404;-82
2021/03/11 02:50:33;;;;;;;44.03;33.55;;;;;;;;;;5077461;28;20746;-82
2021/03/11 02:53:00;;;;;;;41.40;33.33;;;;;;;;;;5081515;28;20780;-82
2021/03/11 02:55:28;;;;;;;40.38;33.20;;;;;;;;;;5097910;28;20360;-83
2021/03/11 02:57:54;;;;;;;41.17;33.35;;;;;;;;;;5098654;28;20377;-82
2021/03/11 03:00:22;;;;;;;42.05;33.08;;;;;;;;;;5082368;28;20904;-81
2021/03/11 03:02:48;;;;;;;42.80;34.88;;;;;;;;;;5080600;28;20872;-87
2021/03/11 03:05:16;;;;;;;43.65;34.92;;;;;;;;;;5097219;28;20357;-86
2021/03/11 03:07:44;;;;;;;45.28;35.67;;;;;;;;;;5099224;28;20372;-83
2021/03/11 03:10:11;;;;;;;45.08;36.10;;;;;;;;;;5100314;28;20431;-82
2021/03/11 03:12:38;;;;;;;43.92;34.65;;;;;;;;;;5081490;28;20387;-82
2021/03/11 03:15:05;;;;;;;45.10;35.42;;;;;;;;;;5100367;28;20364;-82
2021/03/11 03:17:32;;;;;;;45.38;34.33;;;;;;;;;;5081548;28;20914;-82
2021/03/11 03:19:59;;;;;;;44.88;36.40;;;;;;;;;;5101031;28;20380;-83
2021/03/11 03:22:25;;;;;;;45.95;36.75;;;;;;;;;;5083078;28;21107;-82
2021/03/11 03:24:51;;;;;;;47.95;36.38;;;;;;;;;;5080512;28;20411;-82
2021/03/11 03:27:18;;;;;;;48.47;37.58;;;;;;;;;;5101030;28;20375;-82
2021/03/11 03:29:44;;;;;;;51.17;38.25;;;;;;;;;;5083318;28;20377;-82
2021/03/11 03:32:10;;;;;;;49.20;38.23;;;;;;;;;;5100434;28;20365;-82
2021/03/11 03:34:36;;;;;;;49.25;37.88;;;;;;;;;;5082544;28;20479;-82
2021/03/11 03:37:02;;;;;;;52.25;38.95;;;;;;;;;;5082228;28;20730;-82
2021/03/11 03:39:28;;;;;;;55.00;40.22;;;;;;;;;;5102117;28;20364;-84
2021/03/11 03:41:59;;;;;;;53.40;39.83;;;;;;;;;;5100641;28;20368;-83
2021/03/11 03:44:32;;;;;;;50.40;39.03;;;;;;;;;;5097373;28;20415;-85
2021/03/11 03:47:00;;;;;;;50.47;39.17;;;;;;;;;;5080299;28;20463;-82
2021/03/11 03:49:26;;;;;;;53.22;40.58;;;;;;;;;;5082764;28;20483;-82
2021/03/11 03:51:54;;;;;;;53.70;40.72;;;;;;;;;;5075639;28;20365;-84
2021/03/11 03:54:24;;;;;;;51.95;40.38;;;;;;;;;;5095325;28;20365;-82
2021/03/11 03:57:01;;;;;;;53.47;40.17;;;;;;;;;;5065667;28;20904;-82
2021/03/11 03:59:29;;;;;;;55.30;40.28;;;;;;;;;;5099379;28;20440;-82
2021/03/11 04:01:59;;;;;;;54.40;41.13;;;;;;;;;;5081166;28;20376;-82
2021/03/11 04:04:29;;;;;;;54.13;41.20;;;;;;;;;;5102903;28;20819;-83
2021/03/11 04:06:55;;;;;;;54.47;40.83;;;;;;;;;;5103016;28;20418;-82
2021/03/11 04:09:23;;;;;;;51.53;40.00;;;;;;;;;;5099125;28;20372;-88
2021/03/11 04:11:49;;;;;;;55.42;41.17;;;;;;;;;;5075023;28;20373;-91
2021/03/11 04:14:16;;;;;;;57.80;41.40;;;;;;;;;;5098374;28;20376;-84
2021/03/11 04:16:42;;;;;;;53.17;40.08;;;;;;;;;;5102856;28;20379;-83
2021/03/11 04:19:08;;;;;;;54.25;41.30;;;;;;;;;;5096497;28;20380;-92
2021/03/11 04:21:35;;;;;;;56.92;42.42;;;;;;;;;;5093001;28;20831;-83
2021/03/11 04:24:01;;;;;;;56.28;42.90;;;;;;;;;;5076458;28;20396;-91
2021/03/11 04:26:31;;;;;;;52.65;39.85;;;;;;;;;;5098710;28;20388;-83
2021/03/11 04:28:57;;;;;;;57.53;41.97;;;;;;;;;;5094733;28;20372;-89
2021/03/11 04:31:24;;;;;;;56.13;41.27;;;;;;;;;;5093286;28;20368;-83
2021/03/11 04:33:51;;;;;;;52.05;40.17;;;;;;;;;;5093773;28;20924;-85
2021/03/11 04:36:17;;;;;;;53.97;40.05;;;;;;;;;;5093732;28;20373;-93
2021/03/11 04:38:43;;;;;;;57.03;41.28;;;;;;;;;;5076242;28;20379;-85
2021/03/11 04:41:10;;;;;;;53.78;40.65;;;;;;;;;;5079253;28;20381;-87
2021/03/11 04:43:37;;;;;;;48.55;38.80;;;;;;;;;;5098581;28;20427;-87
2021/03/11 04:46:03;;;;;;;50.38;38.60;;;;;;;;;;5095884;28;20727;-83
2021/03/11 04:48:29;;;;;;;50.10;38.20;;;;;;;;;;5080915;28;21186;-82
2021/03/11 04:50:56;;;;;;;50.65;38.22;;;;;;;;;;5102636;28;20738;-81
2021/03/11 04:53:22;;;;;;;48.28;35.70;;;;;;;;;;5083577;28;20420;-88
2021/03/11 04:55:55;;;;;;;48.35;37.58;;;;;;;;;;5079354;28;20380;-88
2021/03/11 04:58:22;;;;;;;50.30;37.75;;;;;;;;;;5075669;28;20416;-89
2021/03/11 05:00:49;;;;;;;50.15;38.08;;;;;;;;;;5092529;28;20391;-88
2021/03/11 05:03:17;;;;;;;52.70;38.20;;;;;;;;;;5073596;28;20404;-88
2021/03/11 05:05:44;;;;;;;52.53;38.67;;;;;;;;;;5090644;28;20404;-85
2021/03/11 05:08:10;;;;;;;50.90;38.30;;;;;;;;;;5072704;28;20380;-87
2021/03/11 05:10:37;;;;;;;55.05;40.13;;;;;;;;;;5090318;28;20365;-92
2021/03/11 05:13:04;;;;;;;53.33;40.03;;;;;;;;;;5072851;28;20832;-86
2021/03/11 05:15:30;;;;;;;55.15;39.92;;;;;;;;;;5092515;28;20375;-86
2021/03/11 05:17:56;;;;;;;55.20;40.72;;;;;;;;;;5092647;28;20364;-87
2021/03/11 05:20:25;;;;;;;55.65;41.25;;;;;;;;;;5074421;28;21075;-91
2021/03/11 05:22:51;;;;;;;52.33;39.43;;;;;;;;;;5091035;28;20400;-93
2021/03/11 05:25:17;;;;;;;54.83;41.38;;;;;;;;;;5091562;28;20365;-88
2021/03/11 05:27:43;;;;;;;55.58;41.08;;;;;;;;;;5073682;28;20376;-86
2021/03/11 05:30:10;;;;;;;55.00;41.13;;;;;;;;;;5089796;28;20899;-88
2021/03/11 05:32:36;;;;;;;55.78;41.22;;;;;;;;;;5074677;28;20468;-84
2021/03/11 05:35:03;;;;;;;58.17;42.60;;;;;;;;;;5091400;28;20464;-88
2021/03/11 05:37:29;;;;;;;59.00;43.60;;;;;;;;;;5055048;28;20379;-92
2021/03/11 05:39:56;;;;;;;59.88;42.33;;;;;;;;;;5072836;28;20367;-90
2021/03/11 05:42:22;;;;;;;59.88;44.13;;;;;;;;;;5074666;28;20379;-86
2021/03/11 05:44:49;;;;;;;59.03;43.33;;;;;;;;;;5094464;28;20368;-85
2021/03/11 05:47:15;;;;;;;64.25;46.15;;;;;;;;;;5074572;28;20433;-91
2021/03/11 05:49:42;;;;;;;65.63;46.42;;;;;;;;;;5092689;28;20904;-86
2021/03/11 05:52:11;;;;;;;63.57;46.13;;;;;;;;;;5073120;28;20372;-88
2021/03/11 05:54:37;;;;;;;62.28;45.70;;;;;;;;;;5093634;28;20466;-84
2021/03/11 05:57:04;;;;;;;67.37;47.03;;;;;;;;;;5074429;28;20392;-90
2021/03/11 05:59:30;;;;;;;66.63;46.77;;;;;;;;;;5072436;28;20514;-87
2021/03/11 06:01:57;;;;;;;67.93;47.55;;;;;;;;;;5097801;28;20396;-88
2021/03/11 06:04:23;;;;;;;69.22;49.00;;;;;;;;;;5099370;28;20404;-87
2021/03/11 06:06:50;;;;;;;72.30;50.80;;;;;;;;;;5081947;28;20486;-82
2021/03/11 06:09:19;;;;;;;73.60;50.88;;;;;;;;;;5093981;28;20372;-92
2021/03/11 06:11:46;;;;;;;70.90;50.28;;;;;;;;;;5071362;28;20396;-86
2021/03/11 06:14:12;;;;;;;66.50;47.42;;;;;;;;;;5091141;28;20383;-90
2021/03/11 06:16:40;;;;;;;73.35;51.15;;;;;;;;;;5073954;28;20436;-86
2021/03/11 06:19:08;;;;;;;74.63;52.08;;;;;;;;;;5075886;28;20383;-84
2021/03/11 06:21:34;;;;;;;80.82;54.13;;;;;;;;;;5075982;28;20460;-84
2021/03/11 06:24:00;;;;;;;80.95;53.97;;;;;;;;;;5077826;28;20404;-86
2021/03/11 06:26:26;;;;;;;76.17;53.50;;;;;;;;;;5078790;28;20368;-89
2021/03/11 06:28:53;;;;;;;80.63;54.50;;;;;;;;;;5074275;28;20372;-81
2021/03/11 06:31:26;;;;;;;86.53;55.72;;;;;;;;;;5076606;28;20452;-83
2021/03/11 06:33:53;;;;;;;89.65;58.42;;;;;;;;;;5092649;28;20412;-84
2021/03/11 06:36:20;;;;;;;93.20;59.85;;;;;;;;;;5075135;28;20380;-84
2021/03/11 06:38:47;;;;;;;90.20;57.55;;;;;;;;;;5079809;28;20708;-87
2021/03/11 06:41:13;;;;;;;93.50;60.40;;;;;;;;;;5094006;28;20381;-88
2021/03/11 06:43:58;;;;;;;98.05;61.17;;;;;;;;;;5075990;28;20414;-87
2021/03/11 06:46:26;;;;;;;95.37;61.43;;;;;;;;;;5073840;28;20404;-90
2021/03/11 06:49:11;;;;;;;101.90;62.13;;;;;;;;;;5083681;28;20489;-82
2021/03/11 06:51:37;;;;;;;97.78;61.85;;;;;;;;;;5097896;28;20851;-82
2021/03/11 06:54:03;;;;;;;100.13;61.15;;;;;;;;;;5078503;28;20377;-86
2021/03/11 06:56:30;;;;;;;98.18;61.00;;;;;;;;;;5089664;28;20376;-90
2021/03/11 06:58:56;;;;;;;96.40;60.80;;;;;;;;;;5090473;28;20356;-88
2021/03/11 07:01:23;;;;;;;95.30;59.30;;;;;;;;;;5073489;28;20578;-88
2021/03/11 07:03:49;;;;;;;96.10;61.00;;;;;;;;;;5070160;28;20408;-84
2021/03/11 07:06:28;;;;;;;94.78;59.42;;;;;;;;;;5070459;28;20704;-86
2021/03/11 07:08:54;;;;;;;89.18;57.28;;;;;;;;;;5091901;28;20380;-90
2021/03/11 07:11:20;;;;;;;93.78;59.25;;;;;;;;;;5075347;28;20380;-83
2021/03/11 07:13:47;;;;;;;90.32;58.42;;;;;;;;;;5087516;28;20380;-89
2021/03/11 07:16:20;;;;;;;90.40;57.10;;;;;;;;;;5085848;28;20371;-86
2021/03/11 07:18:46;;;;;;;91.18;56.95;;;;;;;;;;5070611;28;20946;-92
2021/03/11 07:21:13;;;;;;;87.47;55.97;;;;;;;;;;5075532;28;20875;-85
2021/03/11 07:23:46;;;;;;;82.32;54.90;;;;;;;;;;5078884;28;20421;-87
2021/03/11 07:26:12;;;;;;;85.50;56.05;;;;;;;;;;5100579;28;20406;-82
2021/03/11 07:28:38;;;;;;;83.80;55.38;;;;;;;;;;5078650;28;20870;-85
2021/03/11 07:31:04;;;;;;;81.30;53.50;;;;;;;;;;5075114;28;20862;-85
2021/03/11 07:33:31;;;;;;;83.05;54.55;;;;;;;;;;5094554;28;20842;-87
2021/03/11 07:35:58;;;;;;;83.00;52.27;;;;;;;;;;5076897;28;20514;-81
2021/03/11 07:38:25;;;;;;;76.40;52.00;;;;;;;;;;5096284;28;20391;-84
2021/03/11 07:40:52;;;;;;;74.75;51.15;;;;;;;;;;5074888;28;20479;-89
2021/03/11 07:43:19;;;;;;;72.18;48.53;;;;;;;;;;5092953;28;20400;-87
2021/03/11 07:45:45;;;;;;;73.00;48.70;;;;;;;;;;5079237;28;20735;-87
2021/03/11 07:48:12;;;;;;;70.68;48.40;;;;;;;;;;5074146;28;20388;-86
2021/03/11 07:50:38;;;;;;;71.95;47.80;;;;;;;;;;5083896;28;20400;-86
2021/03/11 07:53:05;;;;;;;74.65;49.08;;;;;;;;;;5103268;28;20376;-82
2021/03/11 07:55:32;;;;;;;72.15;48.38;;;;;;;;;;5085187;28;20388;-82
2021/03/11 07:58:01;;;;;;;76.40;49.40;;;;;;;;;;5102627;28;20436;-82
2021/03/11 08:00:28;;;;;;;74.20;49.17;;;;;;;;;;5098930;28;20376;-85
2021/03/11 08:03:04;;;;;;;75.38;48.53;;;;;;;;;;5079729;28;20416;-86
2021/03/11 08:05:31;;;;;;;74.78;49.55;;;;;;;;;;5101307;28;20367;-88
2021/03/11 08:08:16;;;;;;;73.47;48.23;;;;;;;;;;5078384;28;20528;-91
2021/03/11 08:10:48;;;;;;;76.80;48.97;;;;;;;;;;5094144;28;20364;-87
2021/03/11 08:13:32;;;;;;;76.50;49.05;;;;;;;;;;5092040;28;20373;-85
2021/03/11 08:15:59;;;;;;;79.18;49.47;;;;;;;;;;5098554;28;20379;-84
2021/03/11 08:18:34;;;;;;;74.28;48.20;;;;;;;;;;5098575;28;20411;-86
2021/03/11 08:21:05;;;;;;;77.53;48.40;;;;;;;;;;5083796;28;20392;-83
2021/03/11 08:23:31;;;;;;;74.15;48.35;;;;;;;;;;5096991;28;20428;-88
2021/03/11 08:25:57;;;;;;;75.45;49.47;;;;;;;;;;5080976;28;20480;-83
2021/03/11 08:28:26;;;;;;;78.55;49.17;;;;;;;;;;5082229;28;20376;-84
2021/03/11 08:30:53;;;;;;;79.80;50.90;;;;;;;;;;5080586;28;20399;-87
2021/03/11 08:33:20;;;;;;;78.13;48.67;;;;;;;;;;5095207;28;21986;-83
2021/03/11 08:35:54;;;;;;;80.13;49.30;;;;;;;;;;5094341;28;20449;-83
2021/03/11 08:38:39;;;;;;;81.78;49.05;;;;;;;;;;5082010;28;20395;-83
2021/03/11 08:41:09;;;;;;;76.40;49.47;;;;;;;;;;5080400;28;20368;-89
2021/03/11 08:43:38;;;;;;;78.30;48.35;;;;;;;;;;5076392;28;20400;-85
2021/03/11 08:46:10;;;;;;;73.25;47.15;;;;;;;;;;5078967;28;20467;-89
2021/03/11 08:48:47;;;;;;;82.85;49.25;;;;;;;;;;5074752;28;20376;-89
2021/03/11 08:51:18;;;;;;;77.65;48.13;;;;;;;;;;5093035;28;20392;-88
2021/03/11 08:53:45;;;;;;;72.63;47.55;;;;;;;;;;5095516;28;20396;-86
2021/03/11 08:56:17;;;;;;;74.77;46.50;;;;;;;;;;5092052;28;20378;-90
2021/03/11 08:59:02;;;;;;;76.68;48.15;;;;;;;;;;5071214;28;20376;-84
2021/03/11 09:01:39;;;;;;;77.93;49.08;;;;;;;;;;5090162;28;20411;-89
2021/03/11 09:04:17;;;;;;;76.40;47.47;;;;;;;;;;5070260;28;20407;-91
2021/03/11 09:07:03;;;;;;;73.20;46.25;;;;;;;;;;5071385;28;20380;-86
2021/03/11 09:09:45;;;;;;;68.72;44.78;;;;;;;;;;5084839;28;20391;-87
2021/03/11 09:12:16;;;;;;;74.32;46.33;;;;;;;;;;5071746;28;20377;-86
2021/03/11 09:14:47;;;;;;;67.82;44.70;;;;;;;;;;5071792;28;20779;-90
2021/03/11 09:17:22;;;;;;;68.80;44.53;;;;;;;;;;5069537;28;20380;-87
2021/03/11 09:19:50;;;;;;;69.78;43.83;;;;;;;;;;5073565;28;20789;-92
2021/03/11 09:22:20;;;;;;;66.18;42.83;;;;;;;;;;5069480;28;20669;-85
2021/03/11 09:24:56;;;;;;;65.43;42.08;;;;;;;;;;5069025;28;20434;-92
2021/03/11 09:27:22;;;;;;;66.13;43.63;;;;;;;;;;5089663;28;20376;-90
2021/03/11 09:29:49;;;;;;;64.43;41.87;;;;;;;;;;5071863;28;20436;-85
2021/03/11 09:32:17;;;;;;;59.85;40.85;;;;;;;;;;5072963;28;20410;-91
2021/03/11 09:35:09;;;;;;;55.72;37.97;;;;;;;;;;5072623;28;20407;-87
2021/03/11 09:37:55;;;;;;;54.57;38.07;;;;;;;;;;5081111;28;20380;-89
2021/03/11 09:40:21;;;;;;;57.58;38.45;;;;;;;;;;5071409;28;20381;-92
2021/03/11 09:43:18;;;;;;;53.05;37.70;;;;;;;;;;5072929;28;20399;-89
2021/03/11 09:45:51;;;;;;;53.25;36.15;;;;;;;;;;5058752;28;20381;-93
2021/03/11 09:48:39;;;;;;;46.33;34.08;;;;;;;;;;5073280;28;20445;-91
2021/03/11 09:51:21;;;;;;;47.73;34.30;;;;;;;;;;5093762;28;20950;-84
2021/03/11 09:53:56;;;;;;;46.90;33.67;;;;;;;;;;5074246;28;20388;-91
2021/03/11 09:56:28;;;;;;;42.40;31.90;;;;;;;;;;5094502;28;20403;-89
2021/03/11 09:58:56;;;;;;;40.45;31.15;;;;;;;;;;5092138;28;20378;-83
2021/03/11 10:01:24;;;;;;;40.55;29.75;;;;;;;;;;5093570;28;20885;-90
2021/03/11 10:03:50;;;;;;;40.30;29.98;;;;;;;;;;5091278;28;20396;-84
2021/03/11 10:06:19;;;;;;;38.03;29.33;;;;;;;;;;5073308;28;20360;-84
2021/03/11 10:08:45;;;;;;;34.38;27.67;;;;;;;;;;5091903;28;20365;-87
2021/03/11 10:11:15;;;;;;;33.42;26.58;;;;;;;;;;5092592;28;20376;-86
2021/03/11 10:13:48;;;;;;;36.00;27.13;;;;;;;;;;5070028;28;20727;-88
2021/03/11 10:16:16;;;;;;;33.92;27.02;;;;;;;;;;5071865;28;20916;-87
2021/03/11 10:19:01;;;;;;;34.63;26.73;;;;;;;;;;5067166;28;20380;-91
2021/03/11 10:21:27;;;;;;;32.33;26.08;;;;;;;;;;5085663;28;20391;-91
2021/03/11 10:23:54;;;;;;;33.67;26.15;;;;;;;;;;5085617;28;20443;-85
2021/03/11 10:26:25;;;;;;;31.73;25.33;;;;;;;;;;5073194;28;20384;-90
2021/03/11 10:28:53;;;;;;;30.02;24.08;;;;;;;;;;5084492;28;20368;-88
2021/03/11 10:31:23;;;;;;;29.90;24.40;;;;;;;;;;5090862;28;20377;-87
2021/03/11 10:33:59;;;;;;;28.73;23.27;;;;;;;;;;5071554;28;20381;-84
2021/03/11 10:36:27;;;;;;;27.77;22.75;;;;;;;;;;5089008;28;20392;-90
2021/03/11 10:39:03;;;;;;;29.17;23.87;;;;;;;;;;5090676;28;20379;-92
2021/03/11 11:06:20;;;;;;;17.98;15.90;;;;;;;;;;5272377;22;20563;-82
2021/03/11 11:08:47;;;;;;;17.90;15.40;;;;;;;;;;5032582;28;20875;-82
2021/03/11 11:11:14;;;;;;;15.35;13.75;;;;;;;;;;5062488;28;20492;-81
2021/03/11 11:13:40;;;;;;;16.20;13.80;;;;;;;;;;5055248;28;20378;-81
2021/03/11 11:16:06;;;;;;;15.48;13.75;;;;;;;;;;5064723;28;20377;-81
2021/03/11 11:18:32;;;;;;;16.10;13.98;;;;;;;;;;5051315;28;20405;-80
2021/03/11 11:20:58;;;;;;;14.98;13.38;;;;;;;;;;5066060;28;20386;-80
2021/03/11 11:23:24;;;;;;;15.30;13.65;;;;;;;;;;5063874;28;20419;-81
2021/03/11 11:25:50;;;;;;;15.65;13.55;;;;;;;;;;5062683;28;20448;-82
2021/03/11 11:28:16;;;;;;;15.32;12.63;;;;;;;;;;5055282;28;20439;-81
2021/03/11 11:30:42;;;;;;;14.48;12.85;;;;;;;;;;5067275;28;20575;-81
2021/03/11 11:33:09;;;;;;;15.33;13.70;;;;;;;;;;5070155;28;20522;-81
2021/03/11 11:35:36;;;;;;;15.02;13.43;;;;;;;;;;5066586;28;20383;-80
2021/03/11 11:38:02;;;;;;;14.32;12.63;;;;;;;;;;5069838;28;20715;-82
2021/03/11 11:40:30;;;;;;;14.40;12.77;;;;;;;;;;5051837;28;20765;-81
2021/03/11 11:42:56;;;;;;;14.95;12.93;;;;;;;;;;5048514;28;20410;-82
2021/03/11 11:45:22;;;;;;;16.40;12.95;;;;;;;;;;5050254;28;20382;-80
2021/03/11 11:47:48;;;;;;;14.02;12.52;;;;;;;;;;5069508;28;20389;-81
2021/03/11 11:50:16;;;;;;;14.65;13.15;;;;;;;;;;5060188;28;20392;-81
2021/03/11 11:52:42;;;;;;;14.07;12.57;;;;;;;;;;5078043;28;20418;-80
2021/03/11 11:55:10;;;;;;;14.68;11.70;;;;;;;;;;5064812;28;20399;-80
2021/03/11 11:57:36;;;;;;;13.17;11.77;;;;;;;;;;5077693;28;20530;-81
2021/03/11 12:00:03;;;;;;;12.77;10.98;;;;;;;;;;5067167;28;20374;-81
2021/03/11 12:02:29;;;;;;;14.38;10.75;;;;;;;;;;5054535;28;20824;-81
2021/03/11 12:04:55;;;;;;;12.43;10.82;;;;;;;;;;5084620;28;20489;-81
2021/03/11 12:07:22;;;;;;;14.65;10.63;;;;;;;;;;5049365;28;20394;-80
2021/03/11 12:09:48;;;;;;;11.10;9.95;;;;;;;;;;5075147;28;20453;-80
2021/03/11 12:12:14;;;;;;;12.35;10.55;;;;;;;;;;5081030;28;20383;-81
2021/03/11 12:14:40;;;;;;;11.90;10.68;;;;;;;;;;5061149;28;20736;-81
2021/03/11 12:17:06;;;;;;;11.07;9.93;;;;;;;;;;5077162;28;20379;-80
2021/03/11 12:19:32;;;;;;;11.20;9.90;;;;;;;;;;5082962;28;20380;-81
2021/03/11 12:21:58;;;;;;;12.15;10.38;;;;;;;;;;5085898;28;20376;-81
2021/03/11 12:24:24;;;;;;;10.82;9.73;;;;;;;;;;5070941;28;20477;-80
2021/03/11 12:26:50;;;;;;;11.13;9.85;;;;;;;;;;5053324;28;20852;-81
2021/03/11 12:29:17;;;;;;;11.00;9.82;;;;;;;;;;5048342;28;20386;-83
2021/03/11 12:31:44;;;;;;;12.38;9.80;;;;;;;;;;5054183;28;20381;-82
2021/03/11 12:34:10;;;;;;;10.82;9.70;;;;;;;;;;5064855;28;20374;-83
2021/03/11 12:36:38;;;;;;;11.00;9.70;;;;;;;;;;5050171;28;20423;-82
2021/03/11 12:39:04;;;;;;;11.25;9.20;;;;;;;;;;5063414;28;20432;-82
2021/03/11 12:41:31;;;;;;;10.82;9.18;;;;;;;;;;5052510;28;20399;-83
2021/03/11 12:43:57;;;;;;;9.90;8.93;;;;;;;;;;5070818;28;20400;-84
2021/03/11 12:46:23;;;;;;;9.73;8.68;;;;;;;;;;5059889;28;20378;-84
2021/03/11 12:48:49;;;;;;;8.75;7.85;;;;;;;;;;5073167;28;20435;-83
2021/03/11 12:51:16;;;;;;;10.52;8.40;;;;;;;;;;5049005;28;20372;-83
2021/03/11 12:53:42;;;;;;;9.80;8.77;;;;;;;;;;5063837;28;20392;-82
2021/03/11 12:56:08;;;;;;;9.02;8.13;;;;;;;;;;5090278;28;20896;-82
2021/03/11 12:58:34;;;;;;;8.82;7.95;;;;;;;;;;5082449;28;20868;-84
2021/03/11 13:01:00;;;;;;;10.32;8.35;;;;;;;;;;5065436;28;20382;-82
2021/03/11 13:03:26;;;;;;;9.20;8.25;;;;;;;;;;5072674;28;20407;-83
2021/03/11 13:05:56;;;;;;;9.27;8.05;;;;;;;;;;5070854;28;20390;-83
2021/03/11 13:08:22;;;;;;;8.73;7.85;;;;;;;;;;5062109;28;20468;-84
2021/03/11 13:10:48;;;;;;;8.07;7.27;;;;;;;;;;5043858;28;20392;-83
2021/03/11 13:13:14;;;;;;;8.57;7.13;;;;;;;;;;5069258;28;20796;-86
2021/03/11 13:15:40;;;;;;;8.00;7.00;;;;;;;;;;5070312;28;20392;-84
2021/03/11 13:18:06;;;;;;;8.33;7.30;;;;;;;;;;5065039;28;20374;-84
2021/03/11 13:20:32;;;;;;;7.65;6.95;;;;;;;;;;5065628;28;20397;-84
2021/03/11 13:22:58;;;;;;;7.47;6.70;;;;;;;;;;5055332;28;20918;-84
2021/03/11 13:25:24;;;;;;;8.32;7.40;;;;;;;;;;5064301;28;20413;-84
2021/03/11 13:27:50;;;;;;;9.45;7.82;;;;;;;;;;5065237;28;20382;-84
2021/03/11 13:30:17;;;;;;;9.68;8.05;;;;;;;;;;5071536;28;20398;-84
2021/03/11 13:32:46;;;;;;;9.90;8.90;;;;;;;;;;5050019;28;20390;-84
2021/03/11 13:35:12;;;;;;;10.47;9.37;;;;;;;;;;5048277;28;20748;-83
2021/03/11 13:37:38;;;;;;;11.25;10.07;;;;;;;;;;5051583;28;20887;-84
2021/03/11 13:40:05;;;;;;;12.52;11.20;;;;;;;;;;5068419;28;20441;-84
2021/03/11 13:42:31;;;;;;;13.30;11.90;;;;;;;;;;5072007;28;20384;-85
2021/03/11 13:44:57;;;;;;;15.15;12.95;;;;;;;;;;5070995;28;20380;-82
2021/03/11 13:47:26;;;;;;;13.93;11.77;;;;;;;;;;5085091;28;20465;-84
2021/03/11 13:49:52;;;;;;;13.65;12.35;;;;;;;;;;5051240;28;20386;-84
2021/03/11 13:52:18;;;;;;;14.55;12.60;;;;;;;;;;5062638;28;20390;-84
2021/03/11 13:54:44;;;;;;;13.63;12.20;;;;;;;;;;5042211;28;20439;-83
2021/03/11 13:57:10;;;;;;;12.15;11.05;;;;;;;;;;5069909;28;20386;-84
2021/03/11 13:59:38;;;;;;;11.85;10.65;;;;;;;;;;5074659;28;20372;-85
2021/03/11 14:02:04;;;;;;;13.95;10.75;;;;;;;;;;5069564;28;20449;-85
2021/03/11 14:04:30;;;;;;;11.80;9.60;;;;;;;;;;5052214;28;20894;-83
2021/03/11 14:06:56;;;;;;;11.68;9.77;;;;;;;;;;5069245;28;20393;-84
2021/03/11 14:09:22;;;;;;;11.65;9.63;;;;;;;;;;5051731;28;20385;-83
2021/03/11 14:11:48;;;;;;;10.88;9.77;;;;;;;;;;5069408;28;20366;-83
2021/03/11 14:14:15;;;;;;;9.80;8.82;;;;;;;;;;5051571;28;20378;-83
2021/03/11 14:16:42;;;;;;;8.45;7.57;;;;;;;;;;5069592;28;20374;-83
2021/03/11 14:19:08;;;;;;;8.63;6.80;;;;;;;;;;5051553;28;20464;-83
2021/03/11 14:21:34;;;;;;;8.98;6.90;;;;;;;;;;5055757;28;20471;-84
2021/03/11 14:24:00;;;;;;;5.87;5.20;;;;;;;;;;5038464;28;20437;-84
2021/03/11 14:26:26;;;;;;;5.73;5.10;;;;;;;;;;5052722;28;20383;-83
2021/03/11 14:28:52;;;;;;;7.03;4.90;;;;;;;;;;5068637;28;20883;-84
2021/03/11 14:31:18;;;;;;;4.90;4.07;;;;;;;;;;5067741;28;20394;-84
2021/03/11 14:33:45;;;;;;;4.53;4.13;;;;;;;;;;5069354;28;20366;-84
2021/03/11 14:36:17;;;;;;;4.63;4.18;;;;;;;;;;5068504;28;20401;-83
2021/03/11 14:38:43;;;;;;;5.30;3.83;;;;;;;;;;5067979;28;20378;-83
2021/03/11 14:41:09;;;;;;;4.45;4.00;;;;;;;;;;5069891;28;20381;-83
2021/03/11 14:43:35;;;;;;;4.20;3.75;;;;;;;;;;5068533;28;20468;-80
2021/03/11 14:46:02;;;;;;;4.22;3.55;;;;;;;;;;5066821;28;20744;-80
2021/03/11 14:48:28;;;;;;;5.20;4.03;;;;;;;;;;5066118;28;20398;-83
2021/03/11 14:50:54;;;;;;;3.85;3.10;;;;;;;;;;5066690;28;20377;-80